Time;durP1;ratioP1;P1;durP2;ratioP2;P2;SDS_P1;SDS_P2;PMS_P1;PMS_P2;Temp;Humidity;BMP_temperature;BMP_pressure;BME280_temperature;BME280_humidity;BME280_pressure;Samples;Min_cycle;Max_cycle;Signal;HPM_P1;HPM_P2
2022/12/26 00:01:44;;;;;;;32.83;19.52;;;;;;;;;;5037468;28;20068;-83
2022/12/26 00:04:10;;;;;;;30.98;19.58;;;;;;;;;;5037911;28;20040;-83
2022/12/26 00:06:36;;;;;;;33.88;21.55;;;;;;;;;;5036795;28;20052;-83
2022/12/26 00:09:03;;;;;;;35.20;23.25;;;;;;;;;;5035553;28;20025;-82
2022/12/26 00:11:29;;;;;;;34.58;22.10;;;;;;;;;;5038535;28;20063;-83
2022/12/26 00:13:56;;;;;;;38.05;22.05;;;;;;;;;;5036628;28;20030;-82
2022/12/26 00:16:22;;;;;;;39.00;23.33;;;;;;;;;;5038445;28;20018;-83
2022/12/26 00:18:49;;;;;;;32.13;21.80;;;;;;;;;;5063145;28;20032;-83
2022/12/26 00:21:16;;;;;;;37.47;22.13;;;;;;;;;;5038397;28;20022;-83
2022/12/26 00:23:42;;;;;;;37.13;22.40;;;;;;;;;;5038044;28;20053;-83
2022/12/26 00:26:10;;;;;;;41.03;21.65;;;;;;;;;;5037136;28;20084;-83
2022/12/26 00:28:36;;;;;;;39.38;22.90;;;;;;;;;;5036510;28;20155;-83
2022/12/26 00:31:10;;;;;;;32.90;20.30;;;;;;;;;;5036794;28;20045;-83
2022/12/26 00:33:36;;;;;;;37.15;22.73;;;;;;;;;;5037278;28;20017;-83
2022/12/26 00:36:11;;;;;;;39.47;23.65;;;;;;;;;;5036929;28;20014;-83
2022/12/26 00:38:38;;;;;;;38.75;23.55;;;;;;;;;;5037370;28;20041;-83
2022/12/26 00:41:04;;;;;;;42.03;24.13;;;;;;;;;;5037892;28;20092;-83
2022/12/26 00:43:31;;;;;;;42.80;24.00;;;;;;;;;;5037206;28;20446;-83
2022/12/26 00:45:57;;;;;;;47.40;24.67;;;;;;;;;;5036968;28;20060;-83
2022/12/26 00:48:23;;;;;;;45.97;24.77;;;;;;;;;;5037994;28;20112;-83
2022/12/26 00:50:49;;;;;;;39.13;25.33;;;;;;;;;;5037554;28;20040;-83
2022/12/26 00:53:15;;;;;;;46.08;24.85;;;;;;;;;;5038474;28;20049;-83
2022/12/26 00:55:41;;;;;;;43.03;24.77;;;;;;;;;;5036278;28;20036;-83
2022/12/26 00:58:07;;;;;;;39.25;24.60;;;;;;;;;;5035974;28;20567;-83
2022/12/26 01:00:33;;;;;;;40.15;23.60;;;;;;;;;;5035976;28;20029;-83
2022/12/26 01:02:59;;;;;;;44.40;23.33;;;;;;;;;;5036377;28;20021;-83
2022/12/26 01:05:25;;;;;;;34.05;20.52;;;;;;;;;;5036461;28;20018;-83
2022/12/26 01:07:51;;;;;;;39.65;22.38;;;;;;;;;;5038138;28;20029;-83
2022/12/26 01:10:18;;;;;;;41.47;21.88;;;;;;;;;;5037255;28;20034;-83
2022/12/26 01:12:44;;;;;;;45.55;22.30;;;;;;;;;;5035187;28;20042;-83
2022/12/26 01:15:10;;;;;;;39.42;21.80;;;;;;;;;;5036938;28;20029;-83
2022/12/26 01:17:36;;;;;;;38.55;21.27;;;;;;;;;;5035462;28;20017;-83
2022/12/26 01:20:02;;;;;;;40.08;22.13;;;;;;;;;;5035263;28;20025;-83
2022/12/26 01:22:28;;;;;;;38.65;21.02;;;;;;;;;;5035835;28;20041;-83
2022/12/26 01:24:57;;;;;;;33.50;19.30;;;;;;;;;;5038102;28;20056;-83
2022/12/26 01:27:24;;;;;;;39.13;20.65;;;;;;;;;;5034546;28;20029;-83
2022/12/26 01:29:50;;;;;;;40.33;20.42;;;;;;;;;;5035952;28;20029;-83
2022/12/26 01:32:16;;;;;;;38.08;20.45;;;;;;;;;;5035681;28;20037;-83
2022/12/26 01:34:42;;;;;;;40.13;20.40;;;;;;;;;;5037920;28;20021;-83
2022/12/26 01:37:10;;;;;;;34.45;19.52;;;;;;;;;;5036055;28;20033;-83
2022/12/26 01:39:36;;;;;;;32.28;18.40;;;;;;;;;;5041851;28;20041;-82
2022/12/26 01:42:02;;;;;;;34.53;19.80;;;;;;;;;;5044484;28;20403;-82
2022/12/26 01:44:47;;;;;;;37.95;18.48;;;;;;;;;;5040454;28;20029;-81
2022/12/26 01:47:13;;;;;;;34.90;20.60;;;;;;;;;;5041005;28;20095;-83
2022/12/26 01:49:41;;;;;;;35.95;20.00;;;;;;;;;;5041686;28;20037;-82
2022/12/26 01:52:12;;;;;;;37.90;19.50;;;;;;;;;;5040795;28;20056;-83
2022/12/26 01:54:41;;;;;;;31.30;19.95;;;;;;;;;;5037385;28;20037;-83
2022/12/26 01:57:10;;;;;;;35.47;18.60;;;;;;;;;;5034073;28;20026;-83
2022/12/26 01:59:38;;;;;;;34.50;18.27;;;;;;;;;;5036731;28;21069;-83
2022/12/26 02:02:04;;;;;;;35.00;17.55;;;;;;;;;;5036508;28;20040;-82
2022/12/26 02:07:19;;;;;;;31.02;18.52;;;;;;;;;;5036404;28;20083;-83
2022/12/26 02:09:45;;;;;;;31.65;18.08;;;;;;;;;;5034292;28;20059;-82
2022/12/26 02:12:23;;;;;;;31.45;18.35;;;;;;;;;;5034575;28;20041;-83
2022/12/26 02:14:49;;;;;;;32.67;18.00;;;;;;;;;;5035249;28;20028;-83
2022/12/26 02:17:16;;;;;;;35.20;19.45;;;;;;;;;;5036628;28;20021;-83
2022/12/26 02:19:51;;;;;;;32.95;18.73;;;;;;;;;;5038434;28;20029;-83
2022/12/26 02:22:29;;;;;;;35.67;19.55;;;;;;;;;;5044434;28;20132;-82
2022/12/26 02:25:14;;;;;;;32.63;18.88;;;;;;;;;;5042079;28;20017;-82
2022/12/26 02:27:52;;;;;;;28.55;17.10;;;;;;;;;;5040348;28;20045;-83
2022/12/26 02:30:18;;;;;;;32.95;18.65;;;;;;;;;;5034686;28;20034;-83
2022/12/26 02:32:50;;;;;;;31.38;19.40;;;;;;;;;;5039941;28;20032;-83
2022/12/26 02:35:25;;;;;;;33.67;18.48;;;;;;;;;;5039015;28;20026;-83
2022/12/26 02:38:07;;;;;;;30.35;17.92;;;;;;;;;;5031762;28;20086;-83
2022/12/26 02:40:46;;;;;;;35.28;18.00;;;;;;;;;;5038795;28;20053;-82
2022/12/26 02:43:18;;;;;;;35.55;19.55;;;;;;;;;;5041223;28;20009;-82
2022/12/26 02:48:49;;;;;;;34.40;17.70;;;;;;;;;;5020551;28;20060;-83
2022/12/26 03:14:17;;;;;;;31.95;17.27;;;;;;;;;;5020151;28;20443;-83
2022/12/26 03:19:33;;;;;;;30.52;16.08;;;;;;;;;;5040195;28;20056;-83
2022/12/26 03:22:00;;;;;;;28.40;14.77;;;;;;;;;;5036714;28;20034;-83
2022/12/26 03:26:38;;;;;;;31.98;16.23;;;;;;;;;;5037815;28;20458;-82
2022/12/26 03:27:12;;;;;;;30.00;16.48;;;;;;;;;;5039200;28;21433;-83
2022/12/26 03:32:23;;;;;;;31.25;17.20;;;;;;;;;;5040045;28;20099;-83
2022/12/26 03:34:49;;;;;;;29.88;16.77;;;;;;;;;;5039174;28;20425;-83
2022/12/26 03:37:21;;;;;;;32.83;16.95;;;;;;;;;;5039065;28;20025;-83
2022/12/26 04:20:07;;;;;;;34.97;18.58;;;;;;;;;;5037172;28;20083;-83
2022/12/26 04:45:11;;;;;;;36.80;18.25;;;;;;;;;;5037290;28;20048;-83
2022/12/26 04:50:10;;;;;;;34.05;18.92;;;;;;;;;;5050309;28;20041;-83
2022/12/26 04:50:23;;;;;;;36.25;19.02;;;;;;;;;;5040241;28;20172;-82
2022/12/26 04:52:58;;;;;;;32.47;16.75;;;;;;;;;;5043950;28;20025;-83
2022/12/26 04:55:25;;;;;;;33.15;17.33;;;;;;;;;;5038146;28;20172;-83
2022/12/26 04:57:51;;;;;;;28.65;16.55;;;;;;;;;;5043919;28;20057;-82
2022/12/26 05:00:17;;;;;;;33.65;16.00;;;;;;;;;;5047742;28;20018;-83
2022/12/26 05:11:20;;;;;;;28.33;14.88;;;;;;;;;;5037206;28;20568;-83
2022/12/26 05:13:46;;;;;;;29.13;14.73;;;;;;;;;;5036412;28;20025;-83
2022/12/26 05:30:01;;;;;;;36.17;16.67;;;;;;;;;;5036320;28;20554;-83
2022/12/26 05:35:11;;;;;;;31.75;16.08;;;;;;;;;;5036336;28;20040;-83
2022/12/26 05:37:37;;;;;;;30.88;15.23;;;;;;;;;;5040872;28;20481;-81
2022/12/26 05:40:03;;;;;;;30.95;16.13;;;;;;;;;;5046508;28;20033;-82
2022/12/26 05:42:29;;;;;;;34.53;16.85;;;;;;;;;;5040571;28;20511;-84
2022/12/26 05:44:55;;;;;;;33.15;16.60;;;;;;;;;;5037118;28;20452;-83
2022/12/26 05:47:21;;;;;;;28.90;16.23;;;;;;;;;;5036382;28;20036;-82
2022/12/26 05:49:47;;;;;;;33.92;15.52;;;;;;;;;;5036414;28;20107;-82
2022/12/26 05:52:13;;;;;;;35.22;17.15;;;;;;;;;;5047166;28;20498;-82
2022/12/26 05:54:39;;;;;;;34.88;16.42;;;;;;;;;;5050525;28;20056;-82
2022/12/26 05:57:05;;;;;;;38.80;18.25;;;;;;;;;;5036418;28;20491;-83
2022/12/26 05:59:31;;;;;;;35.17;18.80;;;;;;;;;;5037460;28;20025;-82
2022/12/26 06:01:57;;;;;;;33.30;17.45;;;;;;;;;;5034223;28;20034;-82
2022/12/26 06:04:23;;;;;;;57.33;28.85;;;;;;;;;;5043410;28;20441;-82
2022/12/26 06:06:51;;;;;;;49.10;18.38;;;;;;;;;;5043154;28;20064;-82
2022/12/26 06:09:17;;;;;;;34.65;16.95;;;;;;;;;;5036853;28;20026;-82
2022/12/26 06:11:43;;;;;;;35.97;18.67;;;;;;;;;;5036723;28;20036;-82
2022/12/26 06:14:09;;;;;;;39.33;20.17;;;;;;;;;;5020802;28;20506;-82
2022/12/26 06:16:35;;;;;;;37.85;17.95;;;;;;;;;;5030433;28;20265;-82
2022/12/26 06:19:00;;;;;;;35.25;19.15;;;;;;;;;;5037390;28;20375;-82
2022/12/26 06:21:26;;;;;;;32.08;16.67;;;;;;;;;;5038287;28;20036;-82
2022/12/26 06:23:52;;;;;;;36.60;19.77;;;;;;;;;;5037257;28;20064;-81
2022/12/26 06:26:19;;;;;;;37.97;18.10;;;;;;;;;;5037812;28;20476;-81
2022/12/26 06:28:46;;;;;;;33.28;17.52;;;;;;;;;;5069664;28;20033;-82
2022/12/26 06:31:13;;;;;;;38.28;19.63;;;;;;;;;;5036793;28;20606;-81
2022/12/26 06:33:40;;;;;;;39.85;18.80;;;;;;;;;;5036246;28;20059;-81
2022/12/26 06:36:07;;;;;;;30.75;16.95;;;;;;;;;;5038205;28;20036;-81
2022/12/26 06:38:33;;;;;;;34.05;17.92;;;;;;;;;;5036686;28;20029;-81
2022/12/26 06:40:59;;;;;;;41.75;19.33;;;;;;;;;;5035801;28;20080;-81
2022/12/26 06:43:25;;;;;;;123.30;65.28;;;;;;;;;;5035422;28;20037;-82
2022/12/26 06:45:55;;;;;;;34.92;17.67;;;;;;;;;;5034169;28;20065;-80
2022/12/26 06:48:21;;;;;;;42.97;21.80;;;;;;;;;;5033326;28;20108;-81
2022/12/26 06:50:47;;;;;;;40.45;18.60;;;;;;;;;;5035708;28;20093;-81
2022/12/26 06:53:13;;;;;;;36.85;19.67;;;;;;;;;;5035201;28;20025;-81
2022/12/26 06:55:39;;;;;;;37.95;17.77;;;;;;;;;;5064528;23;20025;-81
2022/12/26 06:58:05;;;;;;;53.85;20.55;;;;;;;;;;5036623;28;20034;-81
2022/12/26 07:00:31;;;;;;;67.15;38.75;;;;;;;;;;5033227;28;20018;-81
2022/12/26 07:02:57;;;;;;;51.13;20.08;;;;;;;;;;5029604;28;20056;-81
2022/12/26 07:05:23;;;;;;;50.58;20.17;;;;;;;;;;5034625;28;20057;-81
2022/12/26 07:07:52;;;;;;;35.47;19.15;;;;;;;;;;5033580;28;20049;-81
2022/12/26 07:10:19;;;;;;;43.67;21.73;;;;;;;;;;5034198;28;20029;-81
2022/12/26 07:12:45;;;;;;;46.67;20.90;;;;;;;;;;5025637;28;20041;-81
2022/12/26 07:15:11;;;;;;;52.10;24.83;;;;;;;;;;5016838;28;20045;-81
2022/12/26 07:17:37;;;;;;;41.65;21.65;;;;;;;;;;5018986;28;20380;-81
2022/12/26 07:20:04;;;;;;;40.40;20.75;;;;;;;;;;5026238;28;20045;-83
2022/12/26 07:22:30;;;;;;;49.42;24.70;;;;;;;;;;5040763;28;20037;-82
2022/12/26 07:24:56;;;;;;;51.28;23.15;;;;;;;;;;5040021;28;20030;-82
2022/12/26 07:27:22;;;;;;;58.22;24.63;;;;;;;;;;5030282;28;20040;-80
2022/12/26 07:29:48;;;;;;;55.05;25.15;;;;;;;;;;5031375;28;20037;-81
2022/12/26 07:32:14;;;;;;;56.28;24.60;;;;;;;;;;5021307;28;20025;-81
2022/12/26 07:34:41;;;;;;;49.28;22.35;;;;;;;;;;5026382;28;20400;-81
2022/12/26 07:37:07;;;;;;;47.35;23.50;;;;;;;;;;5022567;28;20026;-81
2022/12/26 07:39:34;;;;;;;57.47;25.27;;;;;;;;;;5020696;28;20026;-81
2022/12/26 07:42:00;;;;;;;48.13;22.83;;;;;;;;;;5020995;28;20033;-81
2022/12/26 07:44:27;;;;;;;49.03;24.63;;;;;;;;;;5021822;28;20053;-80
2022/12/26 07:46:54;;;;;;;49.10;23.95;;;;;;;;;;5021368;28;20048;-81
2022/12/26 07:49:20;;;;;;;57.08;27.48;;;;;;;;;;5020124;28;20101;-81
2022/12/26 07:51:46;;;;;;;50.35;23.27;;;;;;;;;;5024143;28;20111;-81
2022/12/26 07:54:18;;;;;;;59.63;25.48;;;;;;;;;;5033968;28;20030;-79
2022/12/26 07:59:47;;;;;;;50.45;24.67;;;;;;;;;;4327287;28;20200;-79
2022/12/26 08:02:13;;;;;;;52.20;24.73;;;;;;;;;;5019897;28;20464;-80
2022/12/26 08:04:39;;;;;;;57.45;27.55;;;;;;;;;;5023668;28;20061;-80
2022/12/26 08:10:24;;;;;;;55.13;27.02;;;;;;;;;;5031806;28;20116;-81
2022/12/26 08:12:50;;;;;;;59.13;27.95;;;;;;;;;;5037881;28;20551;-81
2022/12/26 08:15:16;;;;;;;48.05;23.80;;;;;;;;;;5030005;28;20105;-81
2022/12/26 08:17:42;;;;;;;51.03;26.10;;;;;;;;;;5018992;28;20029;-81
2022/12/26 08:20:08;;;;;;;59.03;24.52;;;;;;;;;;5017892;28;20037;-81
2022/12/26 08:22:34;;;;;;;55.90;26.30;;;;;;;;;;5017709;28;20065;-80
2022/12/26 08:25:00;;;;;;;59.85;27.67;;;;;;;;;;5027442;28;20029;-80
2022/12/26 08:27:26;;;;;;;59.72;27.20;;;;;;;;;;5015553;28;20030;-81
2022/12/26 08:29:52;;;;;;;53.80;25.38;;;;;;;;;;5024197;28;20026;-81
2022/12/26 08:32:18;;;;;;;62.25;29.05;;;;;;;;;;5022257;28;20030;-82
2022/12/26 08:34:44;;;;;;;57.15;26.50;;;;;;;;;;5030588;28;20026;-82
2022/12/26 08:37:10;;;;;;;59.88;25.25;;;;;;;;;;5017756;28;20132;-82
2022/12/26 08:39:36;;;;;;;54.10;26.90;;;;;;;;;;5019330;28;20022;-82
2022/12/26 08:42:02;;;;;;;50.35;23.92;;;;;;;;;;5018318;28;20061;-82
2022/12/26 08:44:28;;;;;;;66.97;27.27;;;;;;;;;;5027998;28;20565;-82
2022/12/26 08:46:54;;;;;;;59.92;27.90;;;;;;;;;;5019016;28;20030;-81
2022/12/26 08:49:20;;;;;;;60.33;27.83;;;;;;;;;;5017414;28;20033;-82
2022/12/26 08:51:46;;;;;;;63.03;30.48;;;;;;;;;;5023602;28;20018;-81
2022/12/26 08:54:12;;;;;;;60.92;27.58;;;;;;;;;;5022893;28;20034;-81
2022/12/26 08:56:38;;;;;;;67.60;29.75;;;;;;;;;;5020206;28;20089;-81
2022/12/26 08:59:04;;;;;;;58.13;28.85;;;;;;;;;;5017952;28;20369;-80
2022/12/26 09:01:31;;;;;;;67.82;30.75;;;;;;;;;;5018215;28;20100;-80
2022/12/26 09:03:58;;;;;;;59.28;30.38;;;;;;;;;;5027584;28;20027;-79
2022/12/26 09:06:24;;;;;;;75.95;34.55;;;;;;;;;;5032673;28;20469;-79
2022/12/26 09:08:50;;;;;;;62.17;34.33;;;;;;;;;;5031972;28;20021;-79
2022/12/26 09:11:17;;;;;;;55.08;28.10;;;;;;;;;;5045648;28;20046;-78
2022/12/26 09:13:44;;;;;;;61.25;34.78;;;;;;;;;;5027367;28;20028;-81
2022/12/26 09:16:21;;;;;;;47.53;25.27;;;;;;;;;;5018900;28;20432;-81
2022/12/26 09:18:47;;;;;;;47.38;27.45;;;;;;;;;;5018330;28;20041;-82
2022/12/26 09:21:14;;;;;;;47.38;26.20;;;;;;;;;;5019290;28;20080;-82
2022/12/26 09:23:41;;;;;;;51.15;27.38;;;;;;;;;;5016405;28;20065;-82
2022/12/26 09:26:11;;;;;;;45.83;26.40;;;;;;;;;;5022449;28;20034;-81
2022/12/26 09:28:37;;;;;;;47.95;26.35;;;;;;;;;;5022659;28;20034;-81
2022/12/26 09:31:09;;;;;;;47.55;26.38;;;;;;;;;;5019854;28;20030;-82
2022/12/26 09:33:38;;;;;;;41.22;25.20;;;;;;;;;;5021640;28;20029;-82
2022/12/26 09:36:06;;;;;;;46.13;24.92;;;;;;;;;;5032045;28;20079;-81
2022/12/26 09:38:33;;;;;;;45.88;25.75;;;;;;;;;;5049622;28;20029;-81
2022/12/26 09:41:05;;;;;;;48.20;26.20;;;;;;;;;;5036040;28;20022;-81
2022/12/26 09:43:51;;;;;;;52.30;28.63;;;;;;;;;;5035554;28;20306;-81
2022/12/26 09:46:20;;;;;;;49.58;27.30;;;;;;;;;;5013273;28;20066;-81
2022/12/26 09:48:54;;;;;;;51.63;28.50;;;;;;;;;;5018031;28;20037;-82
2022/12/26 09:51:20;;;;;;;49.72;26.60;;;;;;;;;;5024064;28;20034;-82
2022/12/26 09:53:46;;;;;;;54.38;29.35;;;;;;;;;;5018477;28;20030;-81
2022/12/26 09:56:17;;;;;;;50.63;27.73;;;;;;;;;;5017027;28;20040;-81
2022/12/26 09:58:46;;;;;;;51.05;29.42;;;;;;;;;;5019045;28;20427;-80
2022/12/26 10:01:12;;;;;;;54.55;30.60;;;;;;;;;;4997261;28;20444;-81
2022/12/26 10:03:49;;;;;;;54.03;29.13;;;;;;;;;;5006624;28;20022;-81
2022/12/26 10:06:15;;;;;;;57.78;30.83;;;;;;;;;;5022324;28;20043;-82
2022/12/26 10:08:53;;;;;;;59.28;30.42;;;;;;;;;;5014641;28;20030;-81
2022/12/26 10:11:39;;;;;;;52.45;29.00;;;;;;;;;;5015133;28;20033;-82
2022/12/26 10:14:24;;;;;;;49.47;28.90;;;;;;;;;;5015874;28;20048;-81
2022/12/26 10:17:01;;;;;;;56.65;29.52;;;;;;;;;;5028858;28;20519;-80
2022/12/26 10:19:32;;;;;;;54.10;29.85;;;;;;;;;;5035472;28;20018;-81
2022/12/26 10:22:16;;;;;;;51.92;28.02;;;;;;;;;;5025759;28;20034;-81
2022/12/26 10:24:42;;;;;;;53.65;31.08;;;;;;;;;;5015334;28;20384;-81
2022/12/26 10:27:14;;;;;;;58.05;31.45;;;;;;;;;;5031994;28;20034;-81
2022/12/26 10:29:57;;;;;;;56.00;29.17;;;;;;;;;;5037070;28;20278;-81
2022/12/26 10:32:26;;;;;;;60.78;30.00;;;;;;;;;;5023682;28;20036;-81
2022/12/26 10:34:53;;;;;;;50.97;28.55;;;;;;;;;;5017216;28;20029;-82
2022/12/26 10:37:28;;;;;;;48.65;28.63;;;;;;;;;;5025107;28;20057;-81
2022/12/26 10:39:56;;;;;;;52.78;29.55;;;;;;;;;;5016367;28;20108;-81
2022/12/26 10:42:38;;;;;;;50.85;27.80;;;;;;;;;;5016367;28;20103;-81
2022/12/26 10:45:27;;;;;;;46.35;27.55;;;;;;;;;;5016356;28;20029;-81
2022/12/26 10:47:54;;;;;;;48.30;25.88;;;;;;;;;;5036097;28;20084;-79
2022/12/26 10:50:28;;;;;;;46.75;27.65;;;;;;;;;;5015464;28;20402;-81
2022/12/26 10:52:54;;;;;;;44.72;24.58;;;;;;;;;;5019437;28;20033;-82
2022/12/26 10:55:26;;;;;;;48.88;29.35;;;;;;;;;;5018883;28;20029;-82
2022/12/26 10:57:53;;;;;;;48.25;28.02;;;;;;;;;;5038858;28;20468;-81
2022/12/26 11:00:21;;;;;;;58.90;30.92;;;;;;;;;;5027357;28;20489;-80
2022/12/26 11:03:07;;;;;;;48.20;28.45;;;;;;;;;;5037699;28;20035;-81
2022/12/26 11:05:35;;;;;;;53.38;29.73;;;;;;;;;;5020587;28;20705;-81
2022/12/26 11:08:07;;;;;;;46.45;29.30;;;;;;;;;;5022958;28;20484;-81
2022/12/26 11:10:33;;;;;;;51.47;29.25;;;;;;;;;;5026112;28;20492;-81
2022/12/26 11:13:00;;;;;;;46.28;26.65;;;;;;;;;;5022344;28;20069;-81
2022/12/26 11:15:49;;;;;;;50.17;28.90;;;;;;;;;;5036048;28;20117;-81
2022/12/26 11:18:36;;;;;;;46.22;27.85;;;;;;;;;;5022391;28;20096;-81
2022/12/26 11:21:22;;;;;;;46.38;27.88;;;;;;;;;;5025079;28;20030;-80
2022/12/26 11:23:52;;;;;;;46.70;27.50;;;;;;;;;;5040918;28;20025;-81
2022/12/26 11:26:26;;;;;;;47.17;29.55;;;;;;;;;;5040428;28;20030;-81
2022/12/26 11:29:12;;;;;;;46.53;28.63;;;;;;;;;;5028673;28;20107;-80
2022/12/26 11:31:58;;;;;;;42.45;26.15;;;;;;;;;;5032607;28;20505;-80
2022/12/26 11:34:54;;;;;;;36.90;23.92;;;;;;;;;;5038883;28;20060;-81
2022/12/26 11:37:26;;;;;;;39.33;24.67;;;;;;;;;;5030570;28;20045;-81
2022/12/26 11:39:52;;;;;;;40.72;24.63;;;;;;;;;;5023824;28;20030;-81
2022/12/26 11:42:19;;;;;;;40.97;25.27;;;;;;;;;;5019908;28;20032;-81
2022/12/26 11:44:48;;;;;;;43.97;25.60;;;;;;;;;;5022995;28;20065;-82
2022/12/26 11:47:15;;;;;;;46.47;28.52;;;;;;;;;;5039579;28;20391;-82
2022/12/26 11:49:53;;;;;;;44.78;27.00;;;;;;;;;;5018753;28;20030;-82
2022/12/26 11:52:33;;;;;;;45.65;27.33;;;;;;;;;;5019069;28;20466;-82
2022/12/26 11:54:59;;;;;;;42.47;26.77;;;;;;;;;;5019044;28;20480;-82
2022/12/26 11:57:32;;;;;;;42.30;26.50;;;;;;;;;;5025883;28;20025;-82
2022/12/26 12:00:14;;;;;;;43.13;27.33;;;;;;;;;;5027685;28;20046;-81
2022/12/26 12:02:41;;;;;;;45.80;27.42;;;;;;;;;;5019319;28;20030;-81
2022/12/26 12:05:13;;;;;;;48.05;27.42;;;;;;;;;;5018005;28;20062;-81
2022/12/26 12:07:39;;;;;;;43.70;28.45;;;;;;;;;;5026544;28;20465;-82
2022/12/26 12:10:18;;;;;;;41.50;25.65;;;;;;;;;;5027706;28;20153;-82
2022/12/26 12:12:50;;;;;;;41.85;24.45;;;;;;;;;;5018571;28;20152;-81
2022/12/26 12:15:16;;;;;;;43.50;25.70;;;;;;;;;;5017465;28;20041;-81
2022/12/26 12:17:42;;;;;;;41.03;25.73;;;;;;;;;;5039073;28;20025;-82
2022/12/26 12:20:29;;;;;;;38.65;24.63;;;;;;;;;;5023282;28;20049;-82
2022/12/26 12:23:18;;;;;;;37.67;24.45;;;;;;;;;;5021103;28;20535;-81
2022/12/26 12:25:44;;;;;;;43.47;23.65;;;;;;;;;;5038708;28;20377;-82
2022/12/26 12:28:16;;;;;;;44.22;24.65;;;;;;;;;;5038155;28;20091;-82
2022/12/26 12:30:54;;;;;;;39.85;25.80;;;;;;;;;;5023302;28;20029;-82
2022/12/26 12:33:37;;;;;;;36.83;25.00;;;;;;;;;;5017594;28;20487;-82
2022/12/26 12:36:08;;;;;;;40.28;26.38;;;;;;;;;;5019863;28;20121;-82
2022/12/26 12:38:40;;;;;;;47.75;28.75;;;;;;;;;;5038554;28;20100;-81
2022/12/26 12:41:06;;;;;;;46.05;28.08;;;;;;;;;;5016116;28;20027;-81
2022/12/26 12:43:52;;;;;;;48.90;29.45;;;;;;;;;;5030718;28;20038;-82
2022/12/26 12:46:28;;;;;;;47.10;26.92;;;;;;;;;;5034615;28;20113;-81
2022/12/26 12:49:02;;;;;;;46.97;27.17;;;;;;;;;;5017419;28;20026;-82
2022/12/26 12:51:47;;;;;;;44.03;26.02;;;;;;;;;;5016501;28;20524;-82
2022/12/26 12:54:31;;;;;;;45.10;26.70;;;;;;;;;;5029249;28;20036;-82
2022/12/26 12:57:00;;;;;;;40.92;25.25;;;;;;;;;;5039315;28;20029;-82
2022/12/26 12:59:45;;;;;;;41.78;26.55;;;;;;;;;;5036671;28;20018;-81
2022/12/26 13:02:25;;;;;;;42.17;26.95;;;;;;;;;;5025805;28;20251;-82
2022/12/26 13:04:54;;;;;;;41.20;25.92;;;;;;;;;;5020102;28;20030;-80
2022/12/26 13:07:23;;;;;;;44.95;26.25;;;;;;;;;;5016808;28;20116;-81
2022/12/26 13:09:53;;;;;;;42.13;25.75;;;;;;;;;;5020687;28;20030;-80
2022/12/26 13:12:34;;;;;;;42.28;26.88;;;;;;;;;;5029868;28;20037;-83
2022/12/26 13:15:02;;;;;;;40.78;26.27;;;;;;;;;;5023356;28;20022;-82
2022/12/26 13:17:40;;;;;;;41.38;26.58;;;;;;;;;;5022810;28;20070;-83
2022/12/26 13:20:14;;;;;;;41.92;26.52;;;;;;;;;;5010070;28;20034;-83
2022/12/26 13:25:44;;;;;;;40.35;26.05;;;;;;;;;;5018313;28;20058;-83
2022/12/26 13:28:13;;;;;;;43.40;26.88;;;;;;;;;;5035430;28;20029;-83
2022/12/26 13:30:39;;;;;;;42.97;27.38;;;;;;;;;;5023491;28;20068;-82
2022/12/26 13:33:05;;;;;;;42.92;27.48;;;;;;;;;;5037779;28;20021;-83
2022/12/26 13:35:51;;;;;;;39.03;26.35;;;;;;;;;;5036914;28;20057;-83
2022/12/26 13:38:17;;;;;;;44.83;26.33;;;;;;;;;;5037491;28;20021;-83
2022/12/26 13:40:47;;;;;;;42.58;30.08;;;;;;;;;;5020938;28;20018;-83
2022/12/26 13:46:26;;;;;;;44.25;27.58;;;;;;;;;;5016882;28;20052;-83
2022/12/26 13:48:56;;;;;;;40.95;27.65;;;;;;;;;;5016154;28;20029;-83
2022/12/26 13:51:42;;;;;;;41.28;26.70;;;;;;;;;;5015702;28;20044;-83
2022/12/26 13:54:11;;;;;;;40.70;26.70;;;;;;;;;;5019728;28;20496;-82
2022/12/26 13:56:40;;;;;;;40.47;24.65;;;;;;;;;;5036660;28;20025;-83
2022/12/26 13:59:09;;;;;;;38.25;23.58;;;;;;;;;;5003223;28;20048;-83
2022/12/26 14:01:35;;;;;;;35.20;22.85;;;;;;;;;;5017617;28;20048;-82
2022/12/26 14:04:01;;;;;;;33.88;21.08;;;;;;;;;;5017405;28;20543;-83
2022/12/26 14:06:39;;;;;;;34.60;23.42;;;;;;;;;;5029275;28;20029;-83
2022/12/26 14:09:11;;;;;;;32.35;21.75;;;;;;;;;;5017539;28;20022;-83
2022/12/26 14:11:56;;;;;;;40.10;25.15;;;;;;;;;;5016548;28;20061;-83
2022/12/26 14:14:31;;;;;;;41.05;27.00;;;;;;;;;;5016146;28;20084;-82
2022/12/26 14:17:10;;;;;;;36.55;25.92;;;;;;;;;;5016467;28;20073;-83
2022/12/26 14:19:55;;;;;;;39.22;24.40;;;;;;;;;;5034919;28;20033;-83
2022/12/26 14:22:33;;;;;;;37.90;24.90;;;;;;;;;;5015928;28;20069;-83
2022/12/26 14:25:18;;;;;;;39.20;26.83;;;;;;;;;;5031672;28;20035;-83
2022/12/26 14:27:56;;;;;;;41.28;27.00;;;;;;;;;;5035166;28;20029;-83
2022/12/26 14:30:26;;;;;;;41.35;25.73;;;;;;;;;;5024677;28;20133;-83
2022/12/26 14:33:06;;;;;;;38.65;25.15;;;;;;;;;;5015072;28;20030;-83
2022/12/26 14:35:45;;;;;;;38.40;25.73;;;;;;;;;;5016099;28;20104;-83
2022/12/26 14:38:30;;;;;;;41.13;25.40;;;;;;;;;;5016871;28;20018;-83
2022/12/26 14:41:02;;;;;;;37.42;26.45;;;;;;;;;;5004891;28;20038;-83
2022/12/26 14:43:33;;;;;;;41.05;25.15;;;;;;;;;;5013022;28;20068;-83
2022/12/26 14:46:00;;;;;;;44.42;29.05;;;;;;;;;;5012814;28;20034;-83
2022/12/26 14:48:26;;;;;;;41.03;27.02;;;;;;;;;;4999815;28;20022;-83
2022/12/26 14:51:15;;;;;;;42.13;28.25;;;;;;;;;;5015553;28;20145;-83
2022/12/26 14:53:42;;;;;;;41.42;27.60;;;;;;;;;;4997582;28;20124;-83
2022/12/26 14:56:14;;;;;;;46.35;31.13;;;;;;;;;;4997611;28;20484;-83
2022/12/26 14:58:41;;;;;;;45.40;28.45;;;;;;;;;;5000456;28;20034;-83
2022/12/26 15:01:14;;;;;;;41.78;27.33;;;;;;;;;;5029585;28;20550;-83
2022/12/26 15:03:43;;;;;;;42.28;27.45;;;;;;;;;;5035560;28;20044;-82
2022/12/26 15:06:18;;;;;;;42.00;27.23;;;;;;;;;;5034824;28;20440;-83
2022/12/26 15:08:44;;;;;;;41.80;27.05;;;;;;;;;;5038229;28;20042;-82
2022/12/26 15:11:19;;;;;;;39.15;26.33;;;;;;;;;;5019167;28;20047;-83
2022/12/26 15:14:06;;;;;;;37.30;25.58;;;;;;;;;;5037210;28;20539;-83
2022/12/26 15:16:44;;;;;;;40.10;26.15;;;;;;;;;;5015464;28;20033;-81
2022/12/26 15:19:28;;;;;;;38.85;26.38;;;;;;;;;;5027743;28;20018;-83
2022/12/26 15:21:54;;;;;;;39.97;25.63;;;;;;;;;;5016546;28;20030;-82
2022/12/26 15:24:26;;;;;;;40.50;24.98;;;;;;;;;;5034338;28;20040;-84
2022/12/26 15:26:52;;;;;;;42.70;26.90;;;;;;;;;;5034949;28;20503;-83
2022/12/26 15:29:47;;;;;;;43.00;26.67;;;;;;;;;;5025374;28;20288;-83
2022/12/26 15:32:22;;;;;;;40.42;27.95;;;;;;;;;;5015599;28;20026;-83
2022/12/26 15:34:52;;;;;;;38.80;24.90;;;;;;;;;;5034636;28;20124;-83
2022/12/26 15:37:37;;;;;;;38.42;24.92;;;;;;;;;;5034436;28;20031;-83
2022/12/26 15:40:23;;;;;;;37.72;25.02;;;;;;;;;;5033727;28;20047;-83
2022/12/26 15:42:49;;;;;;;41.00;26.33;;;;;;;;;;5038758;28;20037;-83
2022/12/26 15:45:24;;;;;;;42.47;25.13;;;;;;;;;;5039540;28;20029;-83
2022/12/26 15:47:59;;;;;;;44.55;26.58;;;;;;;;;;5030809;28;20041;-83
2022/12/26 15:50:48;;;;;;;43.47;27.30;;;;;;;;;;5029474;28;20499;-83
2022/12/26 15:53:17;;;;;;;45.33;27.58;;;;;;;;;;4992273;28;20057;-83
2022/12/26 15:55:50;;;;;;;47.25;27.35;;;;;;;;;;4961428;28;20047;-83
2022/12/26 15:58:30;;;;;;;49.13;29.58;;;;;;;;;;4977527;28;20493;-83
2022/12/26 16:00:56;;;;;;;48.90;28.90;;;;;;;;;;4977865;28;20054;-83
2022/12/26 16:03:22;;;;;;;51.67;30.77;;;;;;;;;;4967247;28;20563;-83
2022/12/26 16:05:48;;;;;;;43.67;27.25;;;;;;;;;;4965082;28;20035;-83
2022/12/26 16:08:20;;;;;;;44.78;26.50;;;;;;;;;;4965773;28;20039;-83
2022/12/26 16:10:46;;;;;;;43.47;27.20;;;;;;;;;;4976356;28;20066;-83
2022/12/26 16:13:13;;;;;;;43.58;26.27;;;;;;;;;;4961018;28;20045;-83
2022/12/26 16:15:46;;;;;;;54.75;35.03;;;;;;;;;;4966447;28;20400;-82
2022/12/26 16:18:12;;;;;;;;;;;;;;;;;;4964957;28;20035;-83
2022/12/26 16:23:24;;;;;;;46.53;31.45;;;;;;;;;;4976631;28;20045;-83
2022/12/26 16:25:54;;;;;;;49.40;30.02;;;;;;;;;;4965996;28;20060;-83
2022/12/26 16:28:49;;;;;;;42.35;28.55;;;;;;;;;;4960795;28;20508;-83
2022/12/26 16:31:19;;;;;;;37.40;24.98;;;;;;;;;;5004129;28;20125;-83
2022/12/26 16:33:46;;;;;;;39.70;24.77;;;;;;;;;;5016847;28;20018;-84
2022/12/26 16:36:19;;;;;;;39.15;24.92;;;;;;;;;;5012174;28;20088;-82
2022/12/26 16:38:46;;;;;;;34.65;23.48;;;;;;;;;;5015574;28;20074;-84
2022/12/26 16:41:24;;;;;;;38.25;25.40;;;;;;;;;;5019074;28;20037;-83
2022/12/26 16:43:51;;;;;;;36.20;24.10;;;;;;;;;;5018294;28;20093;-83
2022/12/26 16:46:19;;;;;;;42.22;25.27;;;;;;;;;;5017328;28;20021;-83
2022/12/26 16:48:48;;;;;;;38.05;26.27;;;;;;;;;;5018780;28;20476;-83
2022/12/26 16:51:33;;;;;;;36.42;24.35;;;;;;;;;;5015214;28;20026;-83
2022/12/26 16:54:14;;;;;;;37.95;24.25;;;;;;;;;;5007064;28;20026;-83